sensor_id;sensor_type;location;lat;lon;timestamp;P1;durP1;ratioP1;P2;durP2;ratioP2
20177;SDS011;10248;51.218;20.866;2023-04-30T00:00:13;2.10;;;2.10;;
20177;SDS011;10248;51.218;20.866;2023-04-30T00:03:39;2.38;;;2.28;;
20177;SDS011;10248;51.218;20.866;2023-04-30T00:07:05;2.40;;;2.30;;
20177;SDS011;10248;51.218;20.866;2023-04-30T00:10:32;2.45;;;2.35;;
20177;SDS011;10248;51.218;20.866;2023-04-30T00:13:58;2.58;;;2.47;;
20177;SDS011;10248;51.218;20.866;2023-04-30T00:17:26;2.50;;;2.40;;
20177;SDS011;10248;51.218;20.866;2023-04-30T00:20:52;2.40;;;2.30;;
20177;SDS011;10248;51.218;20.866;2023-04-30T00:24:18;2.25;;;2.15;;
20177;SDS011;10248;51.218;20.866;2023-04-30T00:27:46;2.40;;;2.30;;
20177;SDS011;10248;51.218;20.866;2023-04-30T00:31:12;2.40;;;2.30;;
20177;SDS011;10248;51.218;20.866;2023-04-30T00:34:40;2.30;;;2.20;;
20177;SDS011;10248;51.218;20.866;2023-04-30T00:38:07;2.63;;;2.53;;
20177;SDS011;10248;51.218;20.866;2023-04-30T00:41:33;2.50;;;2.40;;
20177;SDS011;10248;51.218;20.866;2023-04-30T00:45:00;2.47;;;2.38;;
20177;SDS011;10248;51.218;20.866;2023-04-30T00:48:29;2.22;;;2.17;;
20177;SDS011;10248;51.218;20.866;2023-04-30T00:51:56;2.53;;;2.42;;
20177;SDS011;10248;51.218;20.866;2023-04-30T00:55:24;2.60;;;2.50;;
20177;SDS011;10248;51.218;20.866;2023-04-30T00:58:51;2.40;;;2.30;;
20177;SDS011;10248;51.218;20.866;2023-04-30T01:02:18;2.47;;;2.38;;
20177;SDS011;10248;51.218;20.866;2023-04-30T01:05:45;2.50;;;2.40;;
20177;SDS011;10248;51.218;20.866;2023-04-30T01:09:13;2.38;;;2.28;;
20177;SDS011;10248;51.218;20.866;2023-04-30T01:12:42;2.60;;;2.50;;
20177;SDS011;10248;51.218;20.866;2023-04-30T01:16:13;2.63;;;2.53;;
20177;SDS011;10248;51.218;20.866;2023-04-30T01:19:44;2.40;;;2.30;;
20177;SDS011;10248;51.218;20.866;2023-04-30T01:23:13;2.40;;;2.30;;
20177;SDS011;10248;51.218;20.866;2023-04-30T01:30:30;2.70;;;2.60;;
20177;SDS011;10248;51.218;20.866;2023-04-30T01:33:56;2.58;;;2.47;;
20177;SDS011;10248;51.218;20.866;2023-04-30T01:37:23;2.42;;;2.33;;
20177;SDS011;10248;51.218;20.866;2023-04-30T01:40:57;2.40;;;2.30;;
20177;SDS011;10248;51.218;20.866;2023-04-30T01:44:42;2.53;;;2.42;;
20177;SDS011;10248;51.218;20.866;2023-04-30T01:48:17;2.60;;;2.50;;
20177;SDS011;10248;51.218;20.866;2023-04-30T01:51:49;2.50;;;2.40;;
20177;SDS011;10248;51.218;20.866;2023-04-30T01:55:20;2.50;;;2.40;;
20177;SDS011;10248;51.218;20.866;2023-04-30T01:58:49;2.63;;;2.53;;
20177;SDS011;10248;51.218;20.866;2023-04-30T02:02:19;2.50;;;2.40;;
20177;SDS011;10248;51.218;20.866;2023-04-30T02:05:46;2.55;;;2.45;;
20177;SDS011;10248;51.218;20.866;2023-04-30T02:09:13;2.50;;;2.40;;
20177;SDS011;10248;51.218;20.866;2023-04-30T02:12:39;2.40;;;2.30;;
20177;SDS011;10248;51.218;20.866;2023-04-30T02:16:07;2.30;;;2.20;;
20177;SDS011;10248;51.218;20.866;2023-04-30T02:19:34;2.08;;;2.08;;
20177;SDS011;10248;51.218;20.866;2023-04-30T02:23:00;2.50;;;2.40;;
20177;SDS011;10248;51.218;20.866;2023-04-30T02:26:26;2.50;;;2.40;;
20177;SDS011;10248;51.218;20.866;2023-04-30T02:29:53;2.10;;;2.10;;
20177;SDS011;10248;51.218;20.866;2023-04-30T02:33:21;2.35;;;2.25;;
20177;SDS011;10248;51.218;20.866;2023-04-30T02:36:47;2.58;;;2.47;;
20177;SDS011;10248;51.218;20.866;2023-04-30T02:40:14;2.30;;;2.20;;
20177;SDS011;10248;51.218;20.866;2023-04-30T02:43:40;2.40;;;2.30;;
20177;SDS011;10248;51.218;20.866;2023-04-30T02:47:07;2.42;;;2.33;;
20177;SDS011;10248;51.218;20.866;2023-04-30T02:50:35;2.08;;;2.08;;
20177;SDS011;10248;51.218;20.866;2023-04-30T02:54:01;2.53;;;2.42;;
20177;SDS011;10248;51.218;20.866;2023-04-30T02:57:28;2.42;;;2.33;;
20177;SDS011;10248;51.218;20.866;2023-04-30T03:00:54;2.30;;;2.20;;
20177;SDS011;10248;51.218;20.866;2023-04-30T03:04:20;2.10;;;2.10;;
20177;SDS011;10248;51.218;20.866;2023-04-30T03:07:49;2.65;;;2.55;;
20177;SDS011;10248;51.218;20.866;2023-04-30T03:11:15;2.33;;;2.22;;
20177;SDS011;10248;51.218;20.866;2023-04-30T03:14:42;2.50;;;2.40;;
20177;SDS011;10248;51.218;20.866;2023-04-30T03:18:08;2.53;;;2.42;;
20177;SDS011;10248;51.218;20.866;2023-04-30T03:21:35;2.30;;;2.20;;
20177;SDS011;10248;51.218;20.866;2023-04-30T03:25:03;2.30;;;2.20;;
20177;SDS011;10248;51.218;20.866;2023-04-30T03:28:30;2.55;;;2.45;;
20177;SDS011;10248;51.218;20.866;2023-04-30T03:31:56;2.40;;;2.30;;
20177;SDS011;10248;51.218;20.866;2023-04-30T03:35:23;2.13;;;2.10;;
20177;SDS011;10248;51.218;20.866;2023-04-30T03:38:49;2.60;;;2.50;;
20177;SDS011;10248;51.218;20.866;2023-04-30T03:42:17;2.30;;;2.20;;
20177;SDS011;10248;51.218;20.866;2023-04-30T03:45:44;2.30;;;2.20;;
20177;SDS011;10248;51.218;20.866;2023-04-30T03:49:11;2.35;;;2.25;;
20177;SDS011;10248;51.218;20.866;2023-04-30T03:52:38;2.30;;;2.20;;
20177;SDS011;10248;51.218;20.866;2023-04-30T03:56:04;2.30;;;2.20;;
20177;SDS011;10248;51.218;20.866;2023-04-30T03:59:34;2.40;;;2.30;;
20177;SDS011;10248;51.218;20.866;2023-04-30T04:03:00;2.30;;;2.20;;
20177;SDS011;10248;51.218;20.866;2023-04-30T04:06:27;2.33;;;2.22;;
20177;SDS011;10248;51.218;20.866;2023-04-30T04:09:54;2.45;;;2.35;;
20177;SDS011;10248;51.218;20.866;2023-04-30T04:13:20;2.30;;;2.20;;
20177;SDS011;10248;51.218;20.866;2023-04-30T04:16:48;2.40;;;2.30;;
20177;SDS011;10248;51.218;20.866;2023-04-30T04:20:15;2.10;;;2.10;;
20177;SDS011;10248;51.218;20.866;2023-04-30T04:23:41;2.05;;;2.05;;
20177;SDS011;10248;51.218;20.866;2023-04-30T04:27:07;1.95;;;1.95;;
20177;SDS011;10248;51.218;20.866;2023-04-30T04:30:34;2.40;;;2.30;;
20177;SDS011;10248;51.218;20.866;2023-04-30T04:34:02;2.20;;;2.15;;
20177;SDS011;10248;51.218;20.866;2023-04-30T04:37:29;2.00;;;2.00;;
20177;SDS011;10248;51.218;20.866;2023-04-30T04:40:55;2.42;;;2.33;;
20177;SDS011;10248;51.218;20.866;2023-04-30T04:44:22;2.40;;;2.30;;
20177;SDS011;10248;51.218;20.866;2023-04-30T04:47:49;2.00;;;2.00;;
20177;SDS011;10248;51.218;20.866;2023-04-30T04:51:17;2.60;;;2.50;;
20177;SDS011;10248;51.218;20.866;2023-04-30T04:54:44;2.10;;;2.10;;
20177;SDS011;10248;51.218;20.866;2023-04-30T04:58:11;2.50;;;2.40;;
20177;SDS011;10248;51.218;20.866;2023-04-30T05:01:37;2.40;;;2.30;;
20177;SDS011;10248;51.218;20.866;2023-04-30T05:05:04;2.03;;;2.03;;
20177;SDS011;10248;51.218;20.866;2023-04-30T05:08:32;2.30;;;2.20;;
20177;SDS011;10248;51.218;20.866;2023-04-30T05:11:59;2.30;;;2.20;;
20177;SDS011;10248;51.218;20.866;2023-04-30T05:15:25;2.17;;;2.13;;
20177;SDS011;10248;51.218;20.866;2023-04-30T05:18:52;2.40;;;2.30;;
20177;SDS011;10248;51.218;20.866;2023-04-30T05:22:19;2.25;;;2.15;;
20177;SDS011;10248;51.218;20.866;2023-04-30T05:25:49;2.30;;;2.20;;
20177;SDS011;10248;51.218;20.866;2023-04-30T05:29:16;2.45;;;2.35;;
20177;SDS011;10248;51.218;20.866;2023-04-30T05:32:42;2.40;;;2.30;;
20177;SDS011;10248;51.218;20.866;2023-04-30T05:36:09;2.50;;;2.40;;
20177;SDS011;10248;51.218;20.866;2023-04-30T05:39:35;2.17;;;2.10;;
20177;SDS011;10248;51.218;20.866;2023-04-30T05:43:03;2.30;;;2.20;;
20177;SDS011;10248;51.218;20.866;2023-04-30T05:46:30;2.17;;;2.10;;
20177;SDS011;10248;51.218;20.866;2023-04-30T05:49:56;2.00;;;2.00;;
20177;SDS011;10248;51.218;20.866;2023-04-30T05:53:22;2.35;;;2.25;;
20177;SDS011;10248;51.218;20.866;2023-04-30T05:56:48;2.25;;;2.17;;
20177;SDS011;10248;51.218;20.866;2023-04-30T06:00:16;2.38;;;2.28;;
20177;SDS011;10248;51.218;20.866;2023-04-30T06:03:44;2.30;;;2.20;;
20177;SDS011;10248;51.218;20.866;2023-04-30T06:07:14;2.50;;;2.40;;
20177;SDS011;10248;51.218;20.866;2023-04-30T06:10:40;1.90;;;1.90;;
20177;SDS011;10248;51.218;20.866;2023-04-30T06:14:08;2.40;;;2.30;;
20177;SDS011;10248;51.218;20.866;2023-04-30T06:17:37;2.10;;;2.10;;
20177;SDS011;10248;51.218;20.866;2023-04-30T06:21:03;2.40;;;2.30;;
20177;SDS011;10248;51.218;20.866;2023-04-30T06:24:29;2.42;;;2.33;;
20177;SDS011;10248;51.218;20.866;2023-04-30T06:27:56;2.13;;;2.10;;
20177;SDS011;10248;51.218;20.866;2023-04-30T06:31:22;2.53;;;2.42;;
20177;SDS011;10248;51.218;20.866;2023-04-30T06:34:50;2.60;;;2.50;;
20177;SDS011;10248;51.218;20.866;2023-04-30T06:38:19;2.50;;;2.40;;
20177;SDS011;10248;51.218;20.866;2023-04-30T06:41:46;2.50;;;2.40;;
20177;SDS011;10248;51.218;20.866;2023-04-30T06:45:13;2.15;;;2.13;;
20177;SDS011;10248;51.218;20.866;2023-04-30T06:48:40;2.50;;;2.40;;
20177;SDS011;10248;51.218;20.866;2023-04-30T06:52:08;2.40;;;2.30;;
20177;SDS011;10248;51.218;20.866;2023-04-30T06:55:34;2.60;;;2.50;;
20177;SDS011;10248;51.218;20.866;2023-04-30T06:59:01;2.50;;;2.40;;
20177;SDS011;10248;51.218;20.866;2023-04-30T07:02:27;2.50;;;2.40;;
20177;SDS011;10248;51.218;20.866;2023-04-30T07:05:54;2.50;;;2.40;;
20177;SDS011;10248;51.218;20.866;2023-04-30T07:09:22;2.15;;;2.13;;
20177;SDS011;10248;51.218;20.866;2023-04-30T07:12:49;2.60;;;2.50;;
20177;SDS011;10248;51.218;20.866;2023-04-30T07:16:15;2.58;;;2.47;;
20177;SDS011;10248;51.218;20.866;2023-04-30T07:19:42;2.70;;;2.60;;
20177;SDS011;10248;51.218;20.866;2023-04-30T07:23:09;2.70;;;2.60;;
20177;SDS011;10248;51.218;20.866;2023-04-30T07:26:37;2.60;;;2.50;;
20177;SDS011;10248;51.218;20.866;2023-04-30T07:30:04;2.70;;;2.60;;
20177;SDS011;10248;51.218;20.866;2023-04-30T07:33:30;2.55;;;2.45;;
20177;SDS011;10248;51.218;20.866;2023-04-30T07:36:57;2.35;;;2.25;;
20177;SDS011;10248;51.218;20.866;2023-04-30T07:40:23;2.40;;;2.30;;
20177;SDS011;10248;51.218;20.866;2023-04-30T07:43:52;2.35;;;2.25;;
20177;SDS011;10248;51.218;20.866;2023-04-30T07:47:18;2.40;;;2.30;;
20177;SDS011;10248;51.218;20.866;2023-04-30T07:50:46;2.50;;;2.40;;
20177;SDS011;10248;51.218;20.866;2023-04-30T07:54:12;2.10;;;2.10;;
20177;SDS011;10248;51.218;20.866;2023-04-30T07:57:39;2.67;;;2.58;;
20177;SDS011;10248;51.218;20.866;2023-04-30T08:01:07;2.78;;;2.67;;
20177;SDS011;10248;51.218;20.866;2023-04-30T08:04:33;2.50;;;2.40;;
20177;SDS011;10248;51.218;20.866;2023-04-30T08:08:00;2.47;;;2.38;;
20177;SDS011;10248;51.218;20.866;2023-04-30T08:11:27;2.50;;;2.40;;
20177;SDS011;10248;51.218;20.866;2023-04-30T08:14:58;2.40;;;2.30;;
20177;SDS011;10248;51.218;20.866;2023-04-30T08:18:26;2.60;;;2.50;;
20177;SDS011;10248;51.218;20.866;2023-04-30T08:21:52;2.80;;;2.70;;
20177;SDS011;10248;51.218;20.866;2023-04-30T08:25:19;2.60;;;2.50;;
20177;SDS011;10248;51.218;20.866;2023-04-30T08:28:45;2.15;;;2.10;;
20177;SDS011;10248;51.218;20.866;2023-04-30T08:32:11;2.85;;;2.75;;
20177;SDS011;10248;51.218;20.866;2023-04-30T08:35:39;2.78;;;2.67;;
20177;SDS011;10248;51.218;20.866;2023-04-30T08:39:05;2.60;;;2.50;;
20177;SDS011;10248;51.218;20.866;2023-04-30T08:42:35;2.42;;;2.33;;
20177;SDS011;10248;51.218;20.866;2023-04-30T08:46:01;2.38;;;2.28;;
20177;SDS011;10248;51.218;20.866;2023-04-30T08:49:28;2.40;;;2.30;;
20177;SDS011;10248;51.218;20.866;2023-04-30T08:52:56;2.38;;;2.28;;
20177;SDS011;10248;51.218;20.866;2023-04-30T08:56:24;2.45;;;2.35;;
20177;SDS011;10248;51.218;20.866;2023-04-30T08:59:52;2.70;;;2.60;;
20177;SDS011;10248;51.218;20.866;2023-04-30T09:03:18;2.80;;;2.70;;
20177;SDS011;10248;51.218;20.866;2023-04-30T09:06:45;2.65;;;2.55;;
20177;SDS011;10248;51.218;20.866;2023-04-30T09:10:17;2.40;;;2.30;;
20177;SDS011;10248;51.218;20.866;2023-04-30T09:13:49;2.65;;;2.55;;
20177;SDS011;10248;51.218;20.866;2023-04-30T09:17:26;2.80;;;2.70;;
20177;SDS011;10248;51.218;20.866;2023-04-30T09:20:53;2.50;;;2.40;;
20177;SDS011;10248;51.218;20.866;2023-04-30T09:24:22;2.40;;;2.30;;
20177;SDS011;10248;51.218;20.866;2023-04-30T09:27:59;2.55;;;2.45;;
20177;SDS011;10248;51.218;20.866;2023-04-30T09:31:34;1.90;;;1.90;;
20177;SDS011;10248;51.218;20.866;2023-04-30T09:35:00;2.60;;;2.50;;
20177;SDS011;10248;51.218;20.866;2023-04-30T09:38:27;2.50;;;2.40;;
20177;SDS011;10248;51.218;20.866;2023-04-30T09:42:06;2.58;;;2.47;;
20177;SDS011;10248;51.218;20.866;2023-04-30T09:45:40;2.60;;;2.50;;
20177;SDS011;10248;51.218;20.866;2023-04-30T09:49:06;2.90;;;2.80;;
20177;SDS011;10248;51.218;20.866;2023-04-30T09:52:36;2.50;;;2.40;;
20177;SDS011;10248;51.218;20.866;2023-04-30T09:56:03;2.50;;;2.40;;
20177;SDS011;10248;51.218;20.866;2023-04-30T09:59:36;2.70;;;2.60;;
20177;SDS011;10248;51.218;20.866;2023-04-30T10:03:04;2.38;;;2.28;;
20177;SDS011;10248;51.218;20.866;2023-04-30T10:06:31;2.28;;;2.17;;
20177;SDS011;10248;51.218;20.866;2023-04-30T10:09:58;2.50;;;2.40;;
20177;SDS011;10248;51.218;20.866;2023-04-30T10:13:30;2.78;;;2.67;;
20177;SDS011;10248;51.218;20.866;2023-04-30T10:17:02;2.70;;;2.60;;
20177;SDS011;10248;51.218;20.866;2023-04-30T10:23:59;2.22;;;2.17;;
20177;SDS011;10248;51.218;20.866;2023-04-30T10:27:25;2.60;;;2.50;;
20177;SDS011;10248;51.218;20.866;2023-04-30T10:30:52;2.55;;;2.45;;
20177;SDS011;10248;51.218;20.866;2023-04-30T10:34:24;2.67;;;2.58;;
20177;SDS011;10248;51.218;20.866;2023-04-30T10:37:56;2.70;;;2.60;;
20177;SDS011;10248;51.218;20.866;2023-04-30T10:41:25;2.10;;;2.10;;
20177;SDS011;10248;51.218;20.866;2023-04-30T10:44:51;2.40;;;2.30;;
20177;SDS011;10248;51.218;20.866;2023-04-30T10:48:18;2.58;;;2.47;;
20177;SDS011;10248;51.218;20.866;2023-04-30T10:51:52;2.50;;;2.40;;
20177;SDS011;10248;51.218;20.866;2023-04-30T10:55:29;2.20;;;2.13;;
20177;SDS011;10248;51.218;20.866;2023-04-30T10:58:57;2.55;;;2.45;;
20177;SDS011;10248;51.218;20.866;2023-04-30T11:02:40;2.60;;;2.50;;
20177;SDS011;10248;51.218;20.866;2023-04-30T11:06:09;2.70;;;2.60;;
20177;SDS011;10248;51.218;20.866;2023-04-30T11:09:38;2.60;;;2.50;;
20177;SDS011;10248;51.218;20.866;2023-04-30T11:13:05;2.55;;;2.45;;
20177;SDS011;10248;51.218;20.866;2023-04-30T11:16:33;2.40;;;2.30;;
20177;SDS011;10248;51.218;20.866;2023-04-30T11:20:00;2.58;;;2.47;;
20177;SDS011;10248;51.218;20.866;2023-04-30T11:23:28;2.70;;;2.60;;
20177;SDS011;10248;51.218;20.866;2023-04-30T11:27:11;2.60;;;2.50;;
20177;SDS011;10248;51.218;20.866;2023-04-30T11:30:40;2.40;;;2.30;;
20177;SDS011;10248;51.218;20.866;2023-04-30T11:34:07;2.80;;;2.70;;
20177;SDS011;10248;51.218;20.866;2023-04-30T11:37:35;2.70;;;2.60;;
20177;SDS011;10248;51.218;20.866;2023-04-30T11:41:03;2.42;;;2.33;;
20177;SDS011;10248;51.218;20.866;2023-04-30T11:44:30;2.55;;;2.45;;
20177;SDS011;10248;51.218;20.866;2023-04-30T11:47:56;2.55;;;2.45;;
20177;SDS011;10248;51.218;20.866;2023-04-30T11:51:23;2.50;;;2.40;;
20177;SDS011;10248;51.218;20.866;2023-04-30T11:54:55;2.90;;;2.80;;
20177;SDS011;10248;51.218;20.866;2023-04-30T11:58:21;2.60;;;2.50;;
20177;SDS011;10248;51.218;20.866;2023-04-30T12:01:47;2.70;;;2.60;;
20177;SDS011;10248;51.218;20.866;2023-04-30T12:05:15;2.80;;;2.70;;
20177;SDS011;10248;51.218;20.866;2023-04-30T12:12:29;2.50;;;2.40;;
20177;SDS011;10248;51.218;20.866;2023-04-30T12:15:57;2.60;;;2.50;;
20177;SDS011;10248;51.218;20.866;2023-04-30T12:19:25;2.53;;;2.42;;
20177;SDS011;10248;51.218;20.866;2023-04-30T12:22:54;2.40;;;2.30;;
20177;SDS011;10248;51.218;20.866;2023-04-30T12:26:20;2.90;;;2.80;;
20177;SDS011;10248;51.218;20.866;2023-04-30T12:29:49;2.60;;;2.50;;
20177;SDS011;10248;51.218;20.866;2023-04-30T12:33:16;2.90;;;2.80;;
20177;SDS011;10248;51.218;20.866;2023-04-30T12:36:43;2.60;;;2.50;;
20177;SDS011;10248;51.218;20.866;2023-04-30T12:40:11;2.60;;;2.50;;
20177;SDS011;10248;51.218;20.866;2023-04-30T12:43:38;2.72;;;2.63;;
20177;SDS011;10248;51.218;20.866;2023-04-30T12:47:10;2.58;;;2.47;;
20177;SDS011;10248;51.218;20.866;2023-04-30T12:50:36;2.42;;;2.33;;
20177;SDS011;10248;51.218;20.866;2023-04-30T12:54:05;2.60;;;2.50;;
20177;SDS011;10248;51.218;20.866;2023-04-30T12:57:41;2.50;;;2.40;;
20177;SDS011;10248;51.218;20.866;2023-04-30T13:01:09;2.42;;;2.33;;
20177;SDS011;10248;51.218;20.866;2023-04-30T13:04:38;2.42;;;2.33;;
20177;SDS011;10248;51.218;20.866;2023-04-30T13:08:05;2.65;;;2.55;;
20177;SDS011;10248;51.218;20.866;2023-04-30T13:11:31;2.50;;;2.40;;
20177;SDS011;10248;51.218;20.866;2023-04-30T13:14:58;2.60;;;2.50;;
20177;SDS011;10248;51.218;20.866;2023-04-30T13:18:25;2.60;;;2.50;;
20177;SDS011;10248;51.218;20.866;2023-04-30T13:21:52;2.63;;;2.53;;
20177;SDS011;10248;51.218;20.866;2023-04-30T13:25:19;2.60;;;2.50;;
20177;SDS011;10248;51.218;20.866;2023-04-30T13:28:46;3.00;;;2.90;;
20177;SDS011;10248;51.218;20.866;2023-04-30T13:32:13;2.75;;;2.65;;
20177;SDS011;10248;51.218;20.866;2023-04-30T13:35:41;2.70;;;2.60;;
20177;SDS011;10248;51.218;20.866;2023-04-30T13:39:07;2.60;;;2.50;;
20177;SDS011;10248;51.218;20.866;2023-04-30T13:42:35;2.90;;;2.80;;
20177;SDS011;10248;51.218;20.866;2023-04-30T13:46:07;2.90;;;2.80;;
20177;SDS011;10248;51.218;20.866;2023-04-30T13:49:36;2.83;;;2.72;;
20177;SDS011;10248;51.218;20.866;2023-04-30T13:53:04;2.80;;;2.70;;
20177;SDS011;10248;51.218;20.866;2023-04-30T13:56:31;2.72;;;2.63;;
20177;SDS011;10248;51.218;20.866;2023-04-30T13:59:58;2.85;;;2.75;;
20177;SDS011;10248;51.218;20.866;2023-04-30T14:03:25;2.72;;;2.63;;
20177;SDS011;10248;51.218;20.866;2023-04-30T14:06:51;2.90;;;2.80;;
20177;SDS011;10248;51.218;20.866;2023-04-30T14:10:19;2.90;;;2.80;;
20177;SDS011;10248;51.218;20.866;2023-04-30T14:13:46;2.90;;;2.80;;
20177;SDS011;10248;51.218;20.866;2023-04-30T14:17:13;3.00;;;2.90;;
20177;SDS011;10248;51.218;20.866;2023-04-30T14:20:39;2.85;;;2.75;;
20177;SDS011;10248;51.218;20.866;2023-04-30T14:24:07;2.90;;;2.80;;
20177;SDS011;10248;51.218;20.866;2023-04-30T14:27:36;2.70;;;2.60;;
20177;SDS011;10248;51.218;20.866;2023-04-30T14:31:03;2.70;;;2.60;;
20177;SDS011;10248;51.218;20.866;2023-04-30T14:34:31;2.60;;;2.50;;
20177;SDS011;10248;51.218;20.866;2023-04-30T14:37:57;2.70;;;2.60;;
20177;SDS011;10248;51.218;20.866;2023-04-30T14:41:24;2.80;;;2.70;;
20177;SDS011;10248;51.218;20.866;2023-04-30T14:44:53;2.80;;;2.70;;
20177;SDS011;10248;51.218;20.866;2023-04-30T14:48:19;2.80;;;2.70;;
20177;SDS011;10248;51.218;20.866;2023-04-30T14:51:46;2.88;;;2.78;;
20177;SDS011;10248;51.218;20.866;2023-04-30T14:55:12;2.90;;;2.80;;
20177;SDS011;10248;51.218;20.866;2023-04-30T14:58:39;2.80;;;2.70;;
20177;SDS011;10248;51.218;20.866;2023-04-30T15:02:09;2.97;;;2.88;;
20177;SDS011;10248;51.218;20.866;2023-04-30T15:05:35;2.90;;;2.80;;
20177;SDS011;10248;51.218;20.866;2023-04-30T15:09:02;2.80;;;2.70;;
20177;SDS011;10248;51.218;20.866;2023-04-30T15:12:29;2.60;;;2.50;;
20177;SDS011;10248;51.218;20.866;2023-04-30T15:15:56;2.90;;;2.80;;
20177;SDS011;10248;51.218;20.866;2023-04-30T15:19:24;2.80;;;2.70;;
20177;SDS011;10248;51.218;20.866;2023-04-30T15:22:51;2.90;;;2.80;;
20177;SDS011;10248;51.218;20.866;2023-04-30T15:26:19;2.80;;;2.70;;
20177;SDS011;10248;51.218;20.866;2023-04-30T15:29:45;3.00;;;2.90;;
20177;SDS011;10248;51.218;20.866;2023-04-30T15:33:12;2.85;;;2.75;;
20177;SDS011;10248;51.218;20.866;2023-04-30T15:36:41;2.88;;;2.78;;
20177;SDS011;10248;51.218;20.866;2023-04-30T15:40:07;2.95;;;2.85;;
20177;SDS011;10248;51.218;20.866;2023-04-30T15:43:34;2.50;;;2.40;;
20177;SDS011;10248;51.218;20.866;2023-04-30T15:47:05;2.85;;;2.75;;
20177;SDS011;10248;51.218;20.866;2023-04-30T15:50:32;3.00;;;2.90;;
20177;SDS011;10248;51.218;20.866;2023-04-30T15:54:01;2.70;;;2.60;;
20177;SDS011;10248;51.218;20.866;2023-04-30T15:57:27;2.90;;;2.80;;
20177;SDS011;10248;51.218;20.866;2023-04-30T16:00:54;2.80;;;2.70;;
20177;SDS011;10248;51.218;20.866;2023-04-30T16:04:20;2.72;;;2.63;;
20177;SDS011;10248;51.218;20.866;2023-04-30T16:07:47;2.70;;;2.60;;
20177;SDS011;10248;51.218;20.866;2023-04-30T16:11:16;2.50;;;2.40;;
20177;SDS011;10248;51.218;20.866;2023-04-30T16:14:43;2.60;;;2.50;;
20177;SDS011;10248;51.218;20.866;2023-04-30T16:18:09;2.70;;;2.60;;
20177;SDS011;10248;51.218;20.866;2023-04-30T16:21:37;2.67;;;2.58;;
20177;SDS011;10248;51.218;20.866;2023-04-30T16:25:04;2.83;;;2.72;;
20177;SDS011;10248;51.218;20.866;2023-04-30T16:28:33;2.78;;;2.67;;
20177;SDS011;10248;51.218;20.866;2023-04-30T16:32:00;2.42;;;2.33;;
20177;SDS011;10248;51.218;20.866;2023-04-30T16:35:25;2.70;;;2.60;;
20177;SDS011;10248;51.218;20.866;2023-04-30T16:38:53;2.60;;;2.50;;
20177;SDS011;10248;51.218;20.866;2023-04-30T16:42:20;2.60;;;2.50;;
20177;SDS011;10248;51.218;20.866;2023-04-30T16:45:18;2.60;;;2.50;;
20177;SDS011;10248;51.218;20.866;2023-04-30T16:47:58;2.63;;;2.53;;
20177;SDS011;10248;51.218;20.866;2023-04-30T16:51:02;2.50;;;2.40;;
20177;SDS011;10248;51.218;20.866;2023-04-30T16:53:33;2.60;;;2.50;;
20177;SDS011;10248;51.218;20.866;2023-04-30T16:56:56;2.30;;;2.20;;
20177;SDS011;10248;51.218;20.866;2023-04-30T16:59:50;2.60;;;2.50;;
20177;SDS011;10248;51.218;20.866;2023-04-30T17:02:20;2.42;;;2.33;;
20177;SDS011;10248;51.218;20.866;2023-04-30T17:04:49;2.40;;;2.30;;
20177;SDS011;10248;51.218;20.866;2023-04-30T17:07:17;2.45;;;2.35;;
20177;SDS011;10248;51.218;20.866;2023-04-30T17:09:46;2.50;;;2.40;;
20177;SDS011;10248;51.218;20.866;2023-04-30T17:12:16;2.20;;;2.15;;
20177;SDS011;10248;51.218;20.866;2023-04-30T17:14:44;2.08;;;2.08;;
20177;SDS011;10248;51.218;20.866;2023-04-30T17:17:13;2.33;;;2.22;;
20177;SDS011;10248;51.218;20.866;2023-04-30T17:19:42;2.30;;;2.20;;
20177;SDS011;10248;51.218;20.866;2023-04-30T17:22:11;2.40;;;2.30;;
20177;SDS011;10248;51.218;20.866;2023-04-30T17:24:40;2.45;;;2.35;;
20177;SDS011;10248;51.218;20.866;2023-04-30T17:27:08;2.50;;;2.40;;
20177;SDS011;10248;51.218;20.866;2023-04-30T17:29:36;2.40;;;2.30;;
20177;SDS011;10248;51.218;20.866;2023-04-30T17:32:04;2.30;;;2.20;;
20177;SDS011;10248;51.218;20.866;2023-04-30T17:34:36;2.30;;;2.20;;
20177;SDS011;10248;51.218;20.866;2023-04-30T17:37:16;2.45;;;2.35;;
20177;SDS011;10248;51.218;20.866;2023-04-30T17:39:44;2.30;;;2.20;;
20177;SDS011;10248;51.218;20.866;2023-04-30T17:42:16;2.30;;;2.20;;
20177;SDS011;10248;51.218;20.866;2023-04-30T17:44:45;2.30;;;2.20;;
20177;SDS011;10248;51.218;20.866;2023-04-30T17:47:16;2.10;;;2.10;;
20177;SDS011;10248;51.218;20.866;2023-04-30T17:49:44;2.08;;;2.08;;
20177;SDS011;10248;51.218;20.866;2023-04-30T17:52:12;2.35;;;2.25;;
20177;SDS011;10248;51.218;20.866;2023-04-30T17:54:44;2.00;;;2.00;;
20177;SDS011;10248;51.218;20.866;2023-04-30T17:57:12;2.30;;;2.20;;
20177;SDS011;10248;51.218;20.866;2023-04-30T17:59:41;2.10;;;2.10;;
20177;SDS011;10248;51.218;20.866;2023-04-30T18:02:09;2.00;;;2.00;;
20177;SDS011;10248;51.218;20.866;2023-04-30T18:04:37;2.40;;;2.30;;
20177;SDS011;10248;51.218;20.866;2023-04-30T18:07:05;2.15;;;2.13;;
20177;SDS011;10248;51.218;20.866;2023-04-30T18:09:33;2.38;;;2.28;;
20177;SDS011;10248;51.218;20.866;2023-04-30T18:12:02;2.17;;;2.10;;
20177;SDS011;10248;51.218;20.866;2023-04-30T18:14:31;2.30;;;2.20;;
20177;SDS011;10248;51.218;20.866;2023-04-30T18:16:59;2.40;;;2.30;;
20177;SDS011;10248;51.218;20.866;2023-04-30T18:19:27;2.25;;;2.17;;
20177;SDS011;10248;51.218;20.866;2023-04-30T18:21:55;2.30;;;2.20;;
20177;SDS011;10248;51.218;20.866;2023-04-30T18:24:23;2.35;;;2.25;;
20177;SDS011;10248;51.218;20.866;2023-04-30T18:26:53;2.22;;;2.15;;
20177;SDS011;10248;51.218;20.866;2023-04-30T18:29:23;2.17;;;2.13;;
20177;SDS011;10248;51.218;20.866;2023-04-30T18:31:51;2.35;;;2.25;;
20177;SDS011;10248;51.218;20.866;2023-04-30T18:34:19;2.40;;;2.30;;
20177;SDS011;10248;51.218;20.866;2023-04-30T18:36:47;2.00;;;2.00;;
20177;SDS011;10248;51.218;20.866;2023-04-30T18:39:15;2.00;;;2.00;;
20177;SDS011;10248;51.218;20.866;2023-04-30T18:41:44;2.10;;;2.10;;
20177;SDS011;10248;51.218;20.866;2023-04-30T18:44:12;2.28;;;2.17;;
20177;SDS011;10248;51.218;20.866;2023-04-30T18:46:42;2.50;;;2.40;;
20177;SDS011;10248;51.218;20.866;2023-04-30T18:49:11;2.50;;;2.40;;
20177;SDS011;10248;51.218;20.866;2023-04-30T18:51:39;2.30;;;2.20;;
20177;SDS011;10248;51.218;20.866;2023-04-30T18:54:07;2.13;;;2.10;;
20177;SDS011;10248;51.218;20.866;2023-04-30T18:56:35;2.10;;;2.10;;
20177;SDS011;10248;51.218;20.866;2023-04-30T18:59:04;2.15;;;2.13;;
20177;SDS011;10248;51.218;20.866;2023-04-30T19:01:32;2.08;;;2.08;;
20177;SDS011;10248;51.218;20.866;2023-04-30T19:04:02;2.10;;;2.10;;
20177;SDS011;10248;51.218;20.866;2023-04-30T19:06:30;2.33;;;2.22;;
20177;SDS011;10248;51.218;20.866;2023-04-30T19:09:05;2.30;;;2.20;;
20177;SDS011;10248;51.218;20.866;2023-04-30T19:11:34;2.30;;;2.20;;
20177;SDS011;10248;51.218;20.866;2023-04-30T19:14:03;2.13;;;2.13;;
20177;SDS011;10248;51.218;20.866;2023-04-30T19:16:32;2.10;;;2.10;;
20177;SDS011;10248;51.218;20.866;2023-04-30T19:19:00;2.40;;;2.30;;
20177;SDS011;10248;51.218;20.866;2023-04-30T19:21:30;2.38;;;2.28;;
20177;SDS011;10248;51.218;20.866;2023-04-30T19:24:01;2.35;;;2.25;;
20177;SDS011;10248;51.218;20.866;2023-04-30T19:26:30;2.10;;;2.10;;
20177;SDS011;10248;51.218;20.866;2023-04-30T19:29:01;2.70;;;2.60;;
20177;SDS011;10248;51.218;20.866;2023-04-30T19:31:29;2.30;;;2.20;;
20177;SDS011;10248;51.218;20.866;2023-04-30T19:34:01;2.50;;;2.40;;
20177;SDS011;10248;51.218;20.866;2023-04-30T19:36:32;2.30;;;2.20;;